sensor_id;sensor_type;location;lat;lon;timestamp;temperature;humidity
75430;DHT22;64127;51.488;5.462;2023-08-17T00:00:03;22.00;99.90
75430;DHT22;64127;51.488;5.462;2023-08-17T00:02:40;21.90;99.90
75430;DHT22;64127;51.488;5.462;2023-08-17T00:05:13;21.90;99.90
75430;DHT22;64127;51.488;5.462;2023-08-17T00:07:45;21.90;99.90
75430;DHT22;64127;51.488;5.462;2023-08-17T00:10:17;21.90;99.90
75430;DHT22;64127;51.488;5.462;2023-08-17T00:12:49;21.90;99.90
75430;DHT22;64127;51.488;5.462;2023-08-17T00:15:21;21.80;99.90
75430;DHT22;64127;51.488;5.462;2023-08-17T00:17:53;21.80;99.90
75430;DHT22;64127;51.488;5.462;2023-08-17T00:20:25;21.80;99.90
75430;DHT22;64127;51.488;5.462;2023-08-17T00:22:57;21.80;99.90
75430;DHT22;64127;51.488;5.462;2023-08-17T00:25:29;21.70;99.90
75430;DHT22;64127;51.488;5.462;2023-08-17T00:28:01;21.70;99.90
75430;DHT22;64127;51.488;5.462;2023-08-17T00:30:34;21.70;99.90
75430;DHT22;64127;51.488;5.462;2023-08-17T00:33:09;21.60;99.90
75430;DHT22;64127;51.488;5.462;2023-08-17T00:35:42;21.60;99.90
75430;DHT22;64127;51.488;5.462;2023-08-17T00:38:14;21.60;99.90
75430;DHT22;64127;51.488;5.462;2023-08-17T00:40:46;21.50;99.90
75430;DHT22;64127;51.488;5.462;2023-08-17T00:43:19;21.50;99.90
75430;DHT22;64127;51.488;5.462;2023-08-17T00:45:51;21.50;99.90
75430;DHT22;64127;51.488;5.462;2023-08-17T00:48:23;21.50;99.90
75430;DHT22;64127;51.488;5.462;2023-08-17T00:50:56;21.40;99.90
75430;DHT22;64127;51.488;5.462;2023-08-17T00:53:30;21.40;99.90
75430;DHT22;64127;51.488;5.462;2023-08-17T00:56:04;21.40;99.90
75430;DHT22;64127;51.488;5.462;2023-08-17T00:58:36;21.40;99.90
75430;DHT22;64127;51.488;5.462;2023-08-17T01:01:08;21.40;99.90
75430;DHT22;64127;51.488;5.462;2023-08-17T01:03:41;21.30;99.90
75430;DHT22;64127;51.488;5.462;2023-08-17T01:06:14;21.30;99.90
75430;DHT22;64127;51.488;5.462;2023-08-17T01:08:46;21.30;99.90
75430;DHT22;64127;51.488;5.462;2023-08-17T01:14:10;21.20;99.90
75430;DHT22;64127;51.488;5.462;2023-08-17T01:17:16;21.20;99.90
75430;DHT22;64127;51.488;5.462;2023-08-17T01:19:54;21.20;99.90
75430;DHT22;64127;51.488;5.462;2023-08-17T01:22:30;21.10;99.90
75430;DHT22;64127;51.488;5.462;2023-08-17T01:25:05;21.10;99.90
75430;DHT22;64127;51.488;5.462;2023-08-17T01:27:41;21.10;99.90
75430;DHT22;64127;51.488;5.462;2023-08-17T01:30:16;21.10;99.90
75430;DHT22;64127;51.488;5.462;2023-08-17T01:33:09;21.00;99.90
75430;DHT22;64127;51.488;5.462;2023-08-17T01:35:57;21.10;99.90
75430;DHT22;64127;51.488;5.462;2023-08-17T01:38:33;21.10;99.90
75430;DHT22;64127;51.488;5.462;2023-08-17T01:41:08;21.00;99.90
75430;DHT22;64127;51.488;5.462;2023-08-17T01:43:45;21.00;99.90
75430;DHT22;64127;51.488;5.462;2023-08-17T01:46:19;21.00;99.90
75430;DHT22;64127;51.488;5.462;2023-08-17T01:48:51;21.00;99.90
75430;DHT22;64127;51.488;5.462;2023-08-17T01:51:23;21.00;99.90
75430;DHT22;64127;51.488;5.462;2023-08-17T01:53:56;21.00;99.90
75430;DHT22;64127;51.488;5.462;2023-08-17T01:56:28;21.00;99.90
75430;DHT22;64127;51.488;5.462;2023-08-17T01:59:00;20.90;99.90
75430;DHT22;64127;51.488;5.462;2023-08-17T02:01:32;20.90;99.90
75430;DHT22;64127;51.488;5.462;2023-08-17T02:04:04;20.90;99.90
75430;DHT22;64127;51.488;5.462;2023-08-17T02:06:37;20.90;99.90
75430;DHT22;64127;51.488;5.462;2023-08-17T02:09:10;20.90;99.90
75430;DHT22;64127;51.488;5.462;2023-08-17T02:11:42;20.90;99.90
75430;DHT22;64127;51.488;5.462;2023-08-17T02:14:13;20.80;99.90
75430;DHT22;64127;51.488;5.462;2023-08-17T02:16:45;20.80;99.90
75430;DHT22;64127;51.488;5.462;2023-08-17T02:19:17;20.80;99.90
75430;DHT22;64127;51.488;5.462;2023-08-17T02:21:50;20.80;99.90
75430;DHT22;64127;51.488;5.462;2023-08-17T02:24:22;20.80;99.90
75430;DHT22;64127;51.488;5.462;2023-08-17T02:26:54;20.70;99.90
75430;DHT22;64127;51.488;5.462;2023-08-17T02:29:26;20.70;99.90
75430;DHT22;64127;51.488;5.462;2023-08-17T02:31:58;20.70;99.90
75430;DHT22;64127;51.488;5.462;2023-08-17T02:34:30;20.70;99.90
75430;DHT22;64127;51.488;5.462;2023-08-17T02:37:02;20.70;99.90
75430;DHT22;64127;51.488;5.462;2023-08-17T02:39:34;20.70;99.90
75430;DHT22;64127;51.488;5.462;2023-08-17T02:42:06;20.70;99.90
75430;DHT22;64127;51.488;5.462;2023-08-17T02:44:38;20.70;99.90
75430;DHT22;64127;51.488;5.462;2023-08-17T02:47:10;20.70;99.90
75430;DHT22;64127;51.488;5.462;2023-08-17T02:49:42;20.70;99.90
75430;DHT22;64127;51.488;5.462;2023-08-17T02:52:14;20.70;99.90
75430;DHT22;64127;51.488;5.462;2023-08-17T02:54:46;20.60;99.90
75430;DHT22;64127;51.488;5.462;2023-08-17T02:57:20;20.60;99.90
75430;DHT22;64127;51.488;5.462;2023-08-17T02:59:52;20.60;99.90
75430;DHT22;64127;51.488;5.462;2023-08-17T03:02:24;20.60;99.90
75430;DHT22;64127;51.488;5.462;2023-08-17T03:04:56;20.60;99.90
75430;DHT22;64127;51.488;5.462;2023-08-17T03:07:28;20.50;99.90
75430;DHT22;64127;51.488;5.462;2023-08-17T03:10:00;20.50;99.90
75430;DHT22;64127;51.488;5.462;2023-08-17T03:12:32;20.50;99.90
75430;DHT22;64127;51.488;5.462;2023-08-17T03:15:06;20.50;99.90
75430;DHT22;64127;51.488;5.462;2023-08-17T03:17:38;20.50;99.90
75430;DHT22;64127;51.488;5.462;2023-08-17T03:20:10;20.50;99.90
75430;DHT22;64127;51.488;5.462;2023-08-17T03:22:42;20.50;99.90
75430;DHT22;64127;51.488;5.462;2023-08-17T03:25:14;20.50;99.90
75430;DHT22;64127;51.488;5.462;2023-08-17T03:27:46;20.50;99.90
75430;DHT22;64127;51.488;5.462;2023-08-17T03:30:18;20.50;99.90
75430;DHT22;64127;51.488;5.462;2023-08-17T03:32:50;20.50;99.90
75430;DHT22;64127;51.488;5.462;2023-08-17T03:35:22;20.50;99.90
75430;DHT22;64127;51.488;5.462;2023-08-17T03:37:54;20.50;99.90
75430;DHT22;64127;51.488;5.462;2023-08-17T03:40:26;20.40;99.90
75430;DHT22;64127;51.488;5.462;2023-08-17T03:42:58;20.40;99.90
75430;DHT22;64127;51.488;5.462;2023-08-17T03:45:30;20.40;99.90
75430;DHT22;64127;51.488;5.462;2023-08-17T03:48:03;20.40;99.90
75430;DHT22;64127;51.488;5.462;2023-08-17T03:50:36;20.40;99.90
75430;DHT22;64127;51.488;5.462;2023-08-17T03:53:08;20.40;99.90
75430;DHT22;64127;51.488;5.462;2023-08-17T03:55:45;20.40;99.90
75430;DHT22;64127;51.488;5.462;2023-08-17T03:58:18;20.40;99.90
75430;DHT22;64127;51.488;5.462;2023-08-17T04:00:51;20.40;99.90
75430;DHT22;64127;51.488;5.462;2023-08-17T04:03:23;20.30;99.90
75430;DHT22;64127;51.488;5.462;2023-08-17T04:05:55;20.30;99.90
75430;DHT22;64127;51.488;5.462;2023-08-17T04:08:27;20.30;99.90
75430;DHT22;64127;51.488;5.462;2023-08-17T04:10:59;20.30;99.90
75430;DHT22;64127;51.488;5.462;2023-08-17T04:13:32;20.30;99.90
75430;DHT22;64127;51.488;5.462;2023-08-17T04:16:04;20.30;99.90
75430;DHT22;64127;51.488;5.462;2023-08-17T04:18:36;20.20;99.90
75430;DHT22;64127;51.488;5.462;2023-08-17T04:21:08;20.20;99.90
75430;DHT22;64127;51.488;5.462;2023-08-17T04:23:40;20.20;99.90
75430;DHT22;64127;51.488;5.462;2023-08-17T04:26:12;20.20;99.90
75430;DHT22;64127;51.488;5.462;2023-08-17T04:28:44;20.20;99.90
75430;DHT22;64127;51.488;5.462;2023-08-17T04:31:16;20.20;99.90
75430;DHT22;64127;51.488;5.462;2023-08-17T04:33:49;20.20;99.90
75430;DHT22;64127;51.488;5.462;2023-08-17T04:36:21;20.10;99.90
75430;DHT22;64127;51.488;5.462;2023-08-17T04:38:53;20.20;99.90
75430;DHT22;64127;51.488;5.462;2023-08-17T04:41:25;20.10;99.90
75430;DHT22;64127;51.488;5.462;2023-08-17T04:43:57;20.10;99.90
75430;DHT22;64127;51.488;5.462;2023-08-17T04:46:29;20.10;99.90
75430;DHT22;64127;51.488;5.462;2023-08-17T04:49:01;20.20;99.90
75430;DHT22;64127;51.488;5.462;2023-08-17T04:51:33;20.20;99.90
75430;DHT22;64127;51.488;5.462;2023-08-17T04:54:05;20.20;99.90
75430;DHT22;64127;51.488;5.462;2023-08-17T04:56:37;20.10;99.90
75430;DHT22;64127;51.488;5.462;2023-08-17T04:59:09;20.20;99.90
75430;DHT22;64127;51.488;5.462;2023-08-17T05:01:41;20.10;99.90
75430;DHT22;64127;51.488;5.462;2023-08-17T05:04:13;20.20;99.90
75430;DHT22;64127;51.488;5.462;2023-08-17T05:06:45;20.20;99.90
75430;DHT22;64127;51.488;5.462;2023-08-17T05:09:17;20.10;99.90
75430;DHT22;64127;51.488;5.462;2023-08-17T05:11:49;20.10;99.90
75430;DHT22;64127;51.488;5.462;2023-08-17T05:14:21;20.10;99.90
75430;DHT22;64127;51.488;5.462;2023-08-17T05:16:54;20.10;99.90
75430;DHT22;64127;51.488;5.462;2023-08-17T05:19:26;20.10;99.90
75430;DHT22;64127;51.488;5.462;2023-08-17T05:21:58;20.10;99.90
75430;DHT22;64127;51.488;5.462;2023-08-17T05:24:30;20.10;99.90
75430;DHT22;64127;51.488;5.462;2023-08-17T05:27:02;20.10;99.90
75430;DHT22;64127;51.488;5.462;2023-08-17T05:29:34;20.10;99.90
75430;DHT22;64127;51.488;5.462;2023-08-17T05:32:06;20.10;99.90
75430;DHT22;64127;51.488;5.462;2023-08-17T05:34:38;20.10;99.90
75430;DHT22;64127;51.488;5.462;2023-08-17T05:37:10;20.10;99.90
75430;DHT22;64127;51.488;5.462;2023-08-17T05:39:42;20.10;99.90
75430;DHT22;64127;51.488;5.462;2023-08-17T05:42:14;20.10;99.90
75430;DHT22;64127;51.488;5.462;2023-08-17T05:44:46;20.10;99.90
75430;DHT22;64127;51.488;5.462;2023-08-17T05:47:18;20.10;99.90
75430;DHT22;64127;51.488;5.462;2023-08-17T05:49:50;20.10;99.90
75430;DHT22;64127;51.488;5.462;2023-08-17T05:52:22;20.10;99.90
75430;DHT22;64127;51.488;5.462;2023-08-17T05:54:54;20.10;99.90
75430;DHT22;64127;51.488;5.462;2023-08-17T05:57:26;20.10;99.90
75430;DHT22;64127;51.488;5.462;2023-08-17T05:59:59;20.10;99.90
75430;DHT22;64127;51.488;5.462;2023-08-17T06:02:31;20.20;99.90
75430;DHT22;64127;51.488;5.462;2023-08-17T06:05:03;20.10;99.90
75430;DHT22;64127;51.488;5.462;2023-08-17T06:07:36;20.20;99.90
75430;DHT22;64127;51.488;5.462;2023-08-17T06:10:08;20.30;99.90
75430;DHT22;64127;51.488;5.462;2023-08-17T06:12:41;20.30;99.90
75430;DHT22;64127;51.488;5.462;2023-08-17T06:15:13;20.40;99.90
75430;DHT22;64127;51.488;5.462;2023-08-17T06:17:45;20.50;99.90
75430;DHT22;64127;51.488;5.462;2023-08-17T06:20:18;20.50;99.90
75430;DHT22;64127;51.488;5.462;2023-08-17T06:22:50;20.50;99.90
75430;DHT22;64127;51.488;5.462;2023-08-17T06:25:22;20.50;99.90
75430;DHT22;64127;51.488;5.462;2023-08-17T06:27:54;20.50;99.90
75430;DHT22;64127;51.488;5.462;2023-08-17T06:30:27;20.50;99.90
75430;DHT22;64127;51.488;5.462;2023-08-17T06:32:59;20.50;99.90
75430;DHT22;64127;51.488;5.462;2023-08-17T06:35:31;20.40;99.90
75430;DHT22;64127;51.488;5.462;2023-08-17T06:38:03;20.50;99.90
75430;DHT22;64127;51.488;5.462;2023-08-17T06:40:35;20.40;99.90
75430;DHT22;64127;51.488;5.462;2023-08-17T06:43:07;20.40;99.90
75430;DHT22;64127;51.488;5.462;2023-08-17T06:45:39;20.40;99.90
75430;DHT22;64127;51.488;5.462;2023-08-17T06:48:11;20.40;99.90
75430;DHT22;64127;51.488;5.462;2023-08-17T06:50:43;20.40;99.90
75430;DHT22;64127;51.488;5.462;2023-08-17T06:53:15;20.40;99.90
75430;DHT22;64127;51.488;5.462;2023-08-17T06:55:47;20.40;99.90
75430;DHT22;64127;51.488;5.462;2023-08-17T06:58:19;20.40;99.90
75430;DHT22;64127;51.488;5.462;2023-08-17T07:00:51;20.50;99.90
75430;DHT22;64127;51.488;5.462;2023-08-17T07:03:23;20.50;99.90
75430;DHT22;64127;51.488;5.462;2023-08-17T07:05:55;20.50;99.90
75430;DHT22;64127;51.488;5.462;2023-08-17T07:08:27;20.60;99.90
75430;DHT22;64127;51.488;5.462;2023-08-17T07:10:59;20.60;99.90
75430;DHT22;64127;51.488;5.462;2023-08-17T07:13:31;20.60;99.90
75430;DHT22;64127;51.488;5.462;2023-08-17T07:16:03;20.60;99.90
75430;DHT22;64127;51.488;5.462;2023-08-17T07:18:35;20.60;99.90
75430;DHT22;64127;51.488;5.462;2023-08-17T07:21:07;20.50;99.90
75430;DHT22;64127;51.488;5.462;2023-08-17T07:23:43;20.50;99.90
75430;DHT22;64127;51.488;5.462;2023-08-17T07:26:16;20.40;99.90
75430;DHT22;64127;51.488;5.462;2023-08-17T07:28:50;20.40;99.90
75430;DHT22;64127;51.488;5.462;2023-08-17T07:31:22;20.40;99.90
75430;DHT22;64127;51.488;5.462;2023-08-17T07:33:54;20.40;99.90
75430;DHT22;64127;51.488;5.462;2023-08-17T07:36:26;20.50;99.90
75430;DHT22;64127;51.488;5.462;2023-08-17T07:38:59;20.50;99.90
75430;DHT22;64127;51.488;5.462;2023-08-17T07:41:31;20.50;99.90
75430;DHT22;64127;51.488;5.462;2023-08-17T07:44:03;20.50;99.90
75430;DHT22;64127;51.488;5.462;2023-08-17T07:46:36;20.60;99.90
75430;DHT22;64127;51.488;5.462;2023-08-17T07:49:08;20.60;99.90
75430;DHT22;64127;51.488;5.462;2023-08-17T07:51:53;20.60;99.90
75430;DHT22;64127;51.488;5.462;2023-08-17T07:54:25;20.60;99.90
75430;DHT22;64127;51.488;5.462;2023-08-17T07:56:57;20.60;99.90
75430;DHT22;64127;51.488;5.462;2023-08-17T07:59:29;20.60;99.90
75430;DHT22;64127;51.488;5.462;2023-08-17T08:02:01;20.70;99.90
75430;DHT22;64127;51.488;5.462;2023-08-17T08:04:33;20.70;99.90
75430;DHT22;64127;51.488;5.462;2023-08-17T08:07:05;20.70;99.90
75430;DHT22;64127;51.488;5.462;2023-08-17T08:09:37;20.70;99.90
75430;DHT22;64127;51.488;5.462;2023-08-17T08:12:09;20.80;99.90
75430;DHT22;64127;51.488;5.462;2023-08-17T08:14:41;20.80;99.90
75430;DHT22;64127;51.488;5.462;2023-08-17T08:17:13;20.90;99.90
75430;DHT22;64127;51.488;5.462;2023-08-17T08:19:45;20.90;99.90
75430;DHT22;64127;51.488;5.462;2023-08-17T08:22:17;20.90;99.90
75430;DHT22;64127;51.488;5.462;2023-08-17T08:24:49;20.90;99.90
75430;DHT22;64127;51.488;5.462;2023-08-17T08:27:21;20.90;99.90
75430;DHT22;64127;51.488;5.462;2023-08-17T08:29:53;20.90;99.90
75430;DHT22;64127;51.488;5.462;2023-08-17T08:32:25;20.90;99.90
75430;DHT22;64127;51.488;5.462;2023-08-17T08:34:59;20.90;99.90
75430;DHT22;64127;51.488;5.462;2023-08-17T08:37:31;20.80;99.90
75430;DHT22;64127;51.488;5.462;2023-08-17T08:40:04;20.80;99.90
75430;DHT22;64127;51.488;5.462;2023-08-17T08:42:42;20.80;99.90
75430;DHT22;64127;51.488;5.462;2023-08-17T08:45:15;20.70;99.90
75430;DHT22;64127;51.488;5.462;2023-08-17T08:47:47;20.70;99.90
75430;DHT22;64127;51.488;5.462;2023-08-17T08:50:21;20.70;99.90
75430;DHT22;64127;51.488;5.462;2023-08-17T08:53:02;20.70;99.90
75430;DHT22;64127;51.488;5.462;2023-08-17T08:55:39;20.70;99.90
75430;DHT22;64127;51.488;5.462;2023-08-17T08:58:17;20.60;99.90
75430;DHT22;64127;51.488;5.462;2023-08-17T09:00:50;20.60;99.90
75430;DHT22;64127;51.488;5.462;2023-08-17T09:03:22;20.60;99.90
75430;DHT22;64127;51.488;5.462;2023-08-17T09:05:56;20.60;99.90
75430;DHT22;64127;51.488;5.462;2023-08-17T09:08:30;20.50;99.90
75430;DHT22;64127;51.488;5.462;2023-08-17T09:11:02;20.50;99.90
75430;DHT22;64127;51.488;5.462;2023-08-17T09:13:34;20.50;99.90
75430;DHT22;64127;51.488;5.462;2023-08-17T09:16:06;20.50;99.90
75430;DHT22;64127;51.488;5.462;2023-08-17T09:18:39;20.50;99.90
75430;DHT22;64127;51.488;5.462;2023-08-17T09:21:22;20.50;99.90
75430;DHT22;64127;51.488;5.462;2023-08-17T09:23:56;20.50;99.90
75430;DHT22;64127;51.488;5.462;2023-08-17T09:26:31;20.50;99.90
75430;DHT22;64127;51.488;5.462;2023-08-17T09:29:19;20.50;99.90
75430;DHT22;64127;51.488;5.462;2023-08-17T09:31:52;20.50;99.90
75430;DHT22;64127;51.488;5.462;2023-08-17T09:34:24;20.50;99.90
75430;DHT22;64127;51.488;5.462;2023-08-17T09:36:56;20.50;99.90
75430;DHT22;64127;51.488;5.462;2023-08-17T09:39:34;20.50;99.90
75430;DHT22;64127;51.488;5.462;2023-08-17T09:42:06;20.60;99.90
75430;DHT22;64127;51.488;5.462;2023-08-17T09:44:38;20.60;99.90
75430;DHT22;64127;51.488;5.462;2023-08-17T09:47:10;20.60;99.90
75430;DHT22;64127;51.488;5.462;2023-08-17T09:49:47;20.70;99.90
75430;DHT22;64127;51.488;5.462;2023-08-17T09:52:22;20.60;99.90
75430;DHT22;64127;51.488;5.462;2023-08-17T09:54:56;20.60;99.90
75430;DHT22;64127;51.488;5.462;2023-08-17T09:57:32;20.60;99.90
75430;DHT22;64127;51.488;5.462;2023-08-17T10:00:05;20.70;99.90
75430;DHT22;64127;51.488;5.462;2023-08-17T10:02:38;20.70;99.90
75430;DHT22;64127;51.488;5.462;2023-08-17T10:05:17;20.70;99.90
75430;DHT22;64127;51.488;5.462;2023-08-17T10:07:57;20.70;99.90
75430;DHT22;64127;51.488;5.462;2023-08-17T10:10:35;20.60;99.90
75430;DHT22;64127;51.488;5.462;2023-08-17T10:13:34;20.60;99.90
75430;DHT22;64127;51.488;5.462;2023-08-17T10:21:41;20.70;99.90
75430;DHT22;64127;51.488;5.462;2023-08-17T10:24:19;20.70;99.90
75430;DHT22;64127;51.488;5.462;2023-08-17T10:26:51;20.80;99.90
75430;DHT22;64127;51.488;5.462;2023-08-17T10:29:26;20.90;99.90
75430;DHT22;64127;51.488;5.462;2023-08-17T10:32:00;20.90;99.90
75430;DHT22;64127;51.488;5.462;2023-08-17T10:34:34;20.90;99.90
75430;DHT22;64127;51.488;5.462;2023-08-17T10:37:07;21.00;99.90
75430;DHT22;64127;51.488;5.462;2023-08-17T10:39:45;21.00;99.90
75430;DHT22;64127;51.488;5.462;2023-08-17T10:42:38;21.00;99.90
75430;DHT22;64127;51.488;5.462;2023-08-17T10:45:28;21.10;99.90
75430;DHT22;64127;51.488;5.462;2023-08-17T10:50:59;21.20;99.90
75430;DHT22;64127;51.488;5.462;2023-08-17T10:53:37;21.30;99.90
75430;DHT22;64127;51.488;5.462;2023-08-17T10:56:14;21.40;99.90
75430;DHT22;64127;51.488;5.462;2023-08-17T10:58:51;21.40;99.90
75430;DHT22;64127;51.488;5.462;2023-08-17T11:01:33;21.40;99.90
75430;DHT22;64127;51.488;5.462;2023-08-17T11:04:16;21.50;99.90
75430;DHT22;64127;51.488;5.462;2023-08-17T11:07:03;21.50;99.90
75430;DHT22;64127;51.488;5.462;2023-08-17T11:09:35;21.50;99.90
75430;DHT22;64127;51.488;5.462;2023-08-17T11:12:25;21.50;99.90
75430;DHT22;64127;51.488;5.462;2023-08-17T11:14:58;21.60;99.90
75430;DHT22;64127;51.488;5.462;2023-08-17T11:17:31;21.50;99.90
75430;DHT22;64127;51.488;5.462;2023-08-17T11:20:06;21.50;99.90
75430;DHT22;64127;51.488;5.462;2023-08-17T11:22:46;21.50;99.90
75430;DHT22;64127;51.488;5.462;2023-08-17T11:25:19;21.50;99.90
75430;DHT22;64127;51.488;5.462;2023-08-17T11:27:51;21.50;99.90
75430;DHT22;64127;51.488;5.462;2023-08-17T11:30:23;21.50;99.90
75430;DHT22;64127;51.488;5.462;2023-08-17T11:32:56;21.60;99.90
75430;DHT22;64127;51.488;5.462;2023-08-17T11:35:29;21.60;99.90
75430;DHT22;64127;51.488;5.462;2023-08-17T11:38:02;21.70;99.90
75430;DHT22;64127;51.488;5.462;2023-08-17T11:40:39;21.70;99.90
75430;DHT22;64127;51.488;5.462;2023-08-17T11:43:11;21.80;99.90
75430;DHT22;64127;51.488;5.462;2023-08-17T11:45:43;21.90;99.90
75430;DHT22;64127;51.488;5.462;2023-08-17T11:48:15;21.90;99.90
75430;DHT22;64127;51.488;5.462;2023-08-17T11:50:51;22.00;99.90
75430;DHT22;64127;51.488;5.462;2023-08-17T11:53:24;22.00;99.90
75430;DHT22;64127;51.488;5.462;2023-08-17T11:55:56;22.00;99.90
75430;DHT22;64127;51.488;5.462;2023-08-17T11:58:45;22.10;99.90
75430;DHT22;64127;51.488;5.462;2023-08-17T12:01:18;22.00;99.90
75430;DHT22;64127;51.488;5.462;2023-08-17T12:03:50;22.00;99.90
75430;DHT22;64127;51.488;5.462;2023-08-17T12:06:22;22.00;99.90
75430;DHT22;64127;51.488;5.462;2023-08-17T12:08:54;22.00;99.90
75430;DHT22;64127;51.488;5.462;2023-08-17T12:11:26;22.10;99.90
75430;DHT22;64127;51.488;5.462;2023-08-17T12:13:58;22.10;99.90
75430;DHT22;64127;51.488;5.462;2023-08-17T12:16:30;22.10;99.90
75430;DHT22;64127;51.488;5.462;2023-08-17T12:19:04;22.00;99.90
75430;DHT22;64127;51.488;5.462;2023-08-17T12:21:36;22.00;99.90
75430;DHT22;64127;51.488;5.462;2023-08-17T12:24:09;22.00;99.90
75430;DHT22;64127;51.488;5.462;2023-08-17T12:26:46;22.00;99.90
75430;DHT22;64127;51.488;5.462;2023-08-17T12:29:18;22.00;99.90
75430;DHT22;64127;51.488;5.462;2023-08-17T12:31:52;21.90;99.90
75430;DHT22;64127;51.488;5.462;2023-08-17T12:34:24;21.90;99.90
75430;DHT22;64127;51.488;5.462;2023-08-17T12:36:56;21.90;99.90
75430;DHT22;64127;51.488;5.462;2023-08-17T12:39:27;21.90;99.90
75430;DHT22;64127;51.488;5.462;2023-08-17T12:42:01;21.90;99.90
75430;DHT22;64127;51.488;5.462;2023-08-17T12:44:34;21.90;99.90
75430;DHT22;64127;51.488;5.462;2023-08-17T12:47:06;22.00;99.90
75430;DHT22;64127;51.488;5.462;2023-08-17T12:49:38;22.00;99.90
75430;DHT22;64127;51.488;5.462;2023-08-17T12:52:10;22.00;99.90
75430;DHT22;64127;51.488;5.462;2023-08-17T12:54:42;22.10;99.90
75430;DHT22;64127;51.488;5.462;2023-08-17T12:57:14;22.10;99.90
75430;DHT22;64127;51.488;5.462;2023-08-17T12:59:46;22.20;99.90
75430;DHT22;64127;51.488;5.462;2023-08-17T13:02:20;22.20;99.90
75430;DHT22;64127;51.488;5.462;2023-08-17T13:04:52;22.20;99.90
75430;DHT22;64127;51.488;5.462;2023-08-17T13:07:24;22.20;99.90
75430;DHT22;64127;51.488;5.462;2023-08-17T13:09:56;22.30;99.90
75430;DHT22;64127;51.488;5.462;2023-08-17T13:12:28;22.30;99.90
75430;DHT22;64127;51.488;5.462;2023-08-17T13:15:00;22.30;99.90
75430;DHT22;64127;51.488;5.462;2023-08-17T13:17:32;22.30;99.90
75430;DHT22;64127;51.488;5.462;2023-08-17T13:20:05;22.30;99.90
75430;DHT22;64127;51.488;5.462;2023-08-17T13:22:38;22.30;99.90
75430;DHT22;64127;51.488;5.462;2023-08-17T13:25:10;22.30;99.90
75430;DHT22;64127;51.488;5.462;2023-08-17T13:27:42;22.30;99.90
75430;DHT22;64127;51.488;5.462;2023-08-17T13:30:14;22.30;99.90
75430;DHT22;64127;51.488;5.462;2023-08-17T13:32:46;22.40;99.90
75430;DHT22;64127;51.488;5.462;2023-08-17T13:35:18;22.40;99.90
75430;DHT22;64127;51.488;5.462;2023-08-17T13:37:53;22.40;99.90
75430;DHT22;64127;51.488;5.462;2023-08-17T13:40:26;22.40;99.90
75430;DHT22;64127;51.488;5.462;2023-08-17T13:42:58;22.40;99.90
75430;DHT22;64127;51.488;5.462;2023-08-17T13:45:31;22.50;99.90
75430;DHT22;64127;51.488;5.462;2023-08-17T13:48:03;22.40;99.90
75430;DHT22;64127;51.488;5.462;2023-08-17T13:50:38;22.40;99.90
75430;DHT22;64127;51.488;5.462;2023-08-17T13:53:11;22.50;99.90
75430;DHT22;64127;51.488;5.462;2023-08-17T13:55:43;22.40;99.90
75430;DHT22;64127;51.488;5.462;2023-08-17T13:58:15;22.40;99.90
75430;DHT22;64127;51.488;5.462;2023-08-17T14:00:47;22.30;99.90
75430;DHT22;64127;51.488;5.462;2023-08-17T14:03:19;22.30;99.90
75430;DHT22;64127;51.488;5.462;2023-08-17T14:05:52;22.30;99.90
75430;DHT22;64127;51.488;5.462;2023-08-17T14:08:24;22.30;99.90
75430;DHT22;64127;51.488;5.462;2023-08-17T14:10:56;22.30;99.90
75430;DHT22;64127;51.488;5.462;2023-08-17T14:13:28;22.30;99.90
75430;DHT22;64127;51.488;5.462;2023-08-17T14:16:00;22.20;99.90
75430;DHT22;64127;51.488;5.462;2023-08-17T14:18:32;22.20;99.90
75430;DHT22;64127;51.488;5.462;2023-08-17T14:21:04;22.20;99.90
75430;DHT22;64127;51.488;5.462;2023-08-17T14:23:38;22.20;99.90
75430;DHT22;64127;51.488;5.462;2023-08-17T14:26:11;22.20;99.90
75430;DHT22;64127;51.488;5.462;2023-08-17T14:28:43;22.20;99.90
75430;DHT22;64127;51.488;5.462;2023-08-17T14:31:15;22.10;99.90
75430;DHT22;64127;51.488;5.462;2023-08-17T14:33:49;22.20;99.90
75430;DHT22;64127;51.488;5.462;2023-08-17T14:36:21;22.20;99.90
75430;DHT22;64127;51.488;5.462;2023-08-17T14:38:53;22.10;99.90
75430;DHT22;64127;51.488;5.462;2023-08-17T14:41:25;22.10;99.90
75430;DHT22;64127;51.488;5.462;2023-08-17T14:44:03;22.10;99.90
75430;DHT22;64127;51.488;5.462;2023-08-17T14:46:36;22.00;99.90
75430;DHT22;64127;51.488;5.462;2023-08-17T14:49:10;22.00;99.90
75430;DHT22;64127;51.488;5.462;2023-08-17T14:51:42;21.90;99.90
75430;DHT22;64127;51.488;5.462;2023-08-17T14:54:15;21.90;99.90
75430;DHT22;64127;51.488;5.462;2023-08-17T14:56:47;22.00;99.90
75430;DHT22;64127;51.488;5.462;2023-08-17T14:59:19;22.00;99.90
75430;DHT22;64127;51.488;5.462;2023-08-17T15:01:51;22.00;99.90
75430;DHT22;64127;51.488;5.462;2023-08-17T15:04:24;21.90;99.90
75430;DHT22;64127;51.488;5.462;2023-08-17T15:06:57;22.00;99.90
75430;DHT22;64127;51.488;5.462;2023-08-17T15:09:29;22.00;99.90
75430;DHT22;64127;51.488;5.462;2023-08-17T15:12:01;22.00;99.90
75430;DHT22;64127;51.488;5.462;2023-08-17T15:14:37;22.00;99.90
75430;DHT22;64127;51.488;5.462;2023-08-17T15:17:09;22.00;99.90
75430;DHT22;64127;51.488;5.462;2023-08-17T15:19:44;22.00;99.90
75430;DHT22;64127;51.488;5.462;2023-08-17T15:22:16;22.00;99.90
75430;DHT22;64127;51.488;5.462;2023-08-17T15:24:48;22.00;99.90
75430;DHT22;64127;51.488;5.462;2023-08-17T15:27:20;22.00;99.90
75430;DHT22;64127;51.488;5.462;2023-08-17T15:29:52;22.10;99.90
75430;DHT22;64127;51.488;5.462;2023-08-17T15:32:24;22.00;99.90
75430;DHT22;64127;51.488;5.462;2023-08-17T15:34:56;22.00;99.90
75430;DHT22;64127;51.488;5.462;2023-08-17T15:37:28;22.00;99.90
75430;DHT22;64127;51.488;5.462;2023-08-17T15:40:01;22.00;99.90
75430;DHT22;64127;51.488;5.462;2023-08-17T15:42:33;22.00;99.90
75430;DHT22;64127;51.488;5.462;2023-08-17T15:45:05;22.00;99.90
75430;DHT22;64127;51.488;5.462;2023-08-17T15:47:38;22.00;99.90
75430;DHT22;64127;51.488;5.462;2023-08-17T15:50:10;22.00;99.90
75430;DHT22;64127;51.488;5.462;2023-08-17T15:52:42;21.90;99.90
75430;DHT22;64127;51.488;5.462;2023-08-17T15:55:14;21.90;99.90
75430;DHT22;64127;51.488;5.462;2023-08-17T15:57:46;21.90;99.90
75430;DHT22;64127;51.488;5.462;2023-08-17T16:00:18;21.90;99.90
75430;DHT22;64127;51.488;5.462;2023-08-17T16:02:50;21.90;99.90
75430;DHT22;64127;51.488;5.462;2023-08-17T16:05:23;21.90;99.90
75430;DHT22;64127;51.488;5.462;2023-08-17T16:07:55;21.90;99.90
75430;DHT22;64127;51.488;5.462;2023-08-17T16:10:27;21.80;99.90
75430;DHT22;64127;51.488;5.462;2023-08-17T16:13:05;21.80;99.90
75430;DHT22;64127;51.488;5.462;2023-08-17T16:15:38;21.80;99.90
75430;DHT22;64127;51.488;5.462;2023-08-17T16:18:10;21.70;99.90